createdAt,value
2022-09-27T00:00:10.905Z,14.2281
2022-09-27T00:01:11.163Z,14.244
2022-09-27T00:02:11.431Z,14.245
2022-09-27T00:03:11.439Z,14.2663
2022-09-27T00:04:09.800Z,14.26
2022-09-27T00:05:11.421Z,14.235
2022-09-27T00:06:10.444Z,14.23
2022-09-27T00:07:11.175Z,14.193
2022-09-27T00:08:11.442Z,14.137
2022-09-27T00:09:10.323Z,14.155
2022-09-27T00:10:11.504Z,14.095
2022-09-27T00:11:11.325Z,14.065
2022-09-27T00:12:10.898Z,14.075
2022-09-27T00:13:11.868Z,14.065
2022-09-27T00:14:10.552Z,14.02
2022-09-27T00:15:11.099Z,14.015
2022-09-27T00:16:11.257Z,14.025
2022-09-27T00:17:11.226Z,14.03
2022-09-27T00:18:10.453Z,13.98
2022-09-27T00:19:10.401Z,13.96
2022-09-27T00:20:11.462Z,13.935
2022-09-27T00:21:11.038Z,13.915
2022-09-27T00:22:11.292Z,13.855
2022-09-27T00:23:11.541Z,13.867
2022-09-27T00:24:09.735Z,13.827
2022-09-27T00:25:11.153Z,13.828
2022-09-27T00:26:10.740Z,13.775
2022-09-27T00:27:10.394Z,13.765
2022-09-27T00:28:11.094Z,13.725
2022-09-27T00:29:10.157Z,13.705
2022-09-27T00:30:11.272Z,13.73
2022-09-27T00:31:10.768Z,13.73
2022-09-27T00:32:10.706Z,13.705
2022-09-27T00:33:11.403Z,13.66
2022-09-27T00:34:10.080Z,13.6
2022-09-27T00:35:10.498Z,13.565
2022-09-27T00:36:11.541Z,13.56
2022-09-27T00:37:10.586Z,13.49
2022-09-27T00:38:10.712Z,13.495
2022-09-27T00:39:10.544Z,13.455
2022-09-27T00:40:10.433Z,13.43
2022-09-27T00:41:10.565Z,13.445
2022-09-27T00:42:10.998Z,13.435
2022-09-27T00:43:11.097Z,13.415
2022-09-27T00:44:09.445Z,13.41
2022-09-27T00:45:11.333Z,13.395
2022-09-27T00:46:11.118Z,13.41
2022-09-27T00:47:11.634Z,13.383
2022-09-27T00:48:11.136Z,13.4
2022-09-27T00:49:10.087Z,13.4
2022-09-27T00:50:15.708Z,13.405
2022-09-27T00:51:10.939Z,13.42
2022-09-27T00:52:10.147Z,13.378
2022-09-27T00:53:11.525Z,13.38
2022-09-27T00:54:10.088Z,13.4
2022-09-27T00:55:10.841Z,13.356
2022-09-27T00:56:10.935Z,13.405
2022-09-27T00:57:11.298Z,13.41
2022-09-27T00:58:12.021Z,13.4
2022-09-27T00:59:10.173Z,13.415
2022-09-27T01:00:10.498Z,13.389
2022-09-27T01:01:11.882Z,13.425
2022-09-27T01:02:11.400Z,13.41
2022-09-27T01:03:10.765Z,13.44
2022-09-27T01:04:10.659Z,13.419
2022-09-27T01:05:10.624Z,13.395
2022-09-27T01:06:10.095Z,13.42
2022-09-27T01:07:10.733Z,13.415
2022-09-27T01:08:10.142Z,13.38
2022-09-27T01:09:10.914Z,13.373
2022-09-27T01:10:11.252Z,13.383
2022-09-27T01:11:10.963Z,13.38
2022-09-27T01:12:11.732Z,13.3683
2022-09-27T01:13:11.014Z,13.39
2022-09-27T01:14:09.896Z,13.405
2022-09-27T01:15:11.190Z,13.405
2022-09-27T01:16:10.489Z,13.415
2022-09-27T01:17:10.826Z,13.44
2022-09-27T01:18:11.928Z,13.416
2022-09-27T01:19:10.166Z,13.384
2022-09-27T01:20:10.159Z,13.354
2022-09-27T01:21:11.571Z,13.353
2022-09-27T01:22:10.540Z,13.354
2022-09-27T01:23:10.688Z,13.367
2022-09-27T01:24:10.517Z,13.334
2022-09-27T01:25:10.986Z,13.275
2022-09-27T01:26:10.109Z,13.25
2022-09-27T01:27:11.212Z,13.21
2022-09-27T01:28:11.206Z,13.255
2022-09-27T01:29:09.669Z,13.265
2022-09-27T01:30:11.113Z,13.235
2022-09-27T01:31:10.983Z,13.235
2022-09-27T01:32:10.748Z,13.25
2022-09-27T01:33:11.274Z,13.25
2022-09-27T01:34:09.618Z,13.235
2022-09-27T01:35:11.515Z,13.205
2022-09-27T01:36:11.168Z,13.215
2022-09-27T01:37:10.913Z,13.215
2022-09-27T01:38:10.766Z,13.1891
2022-09-27T01:39:09.918Z,13.21
2022-09-27T01:40:10.548Z,13.22
2022-09-27T01:41:11.264Z,13.255
2022-09-27T01:42:13.021Z,13.26
2022-09-27T01:43:11.740Z,13.245
2022-09-27T01:44:10.088Z,13.235
2022-09-27T01:45:10.891Z,13.23
2022-09-27T01:46:11.864Z,13.204
2022-09-27T01:47:11.308Z,13.1891
2022-09-27T01:48:10.036Z,13.19
2022-09-27T01:49:11.054Z,13.2
2022-09-27T01:50:11.438Z,13.1783
2022-09-27T01:51:11.440Z,13.166
2022-09-27T01:52:11.644Z,13.155
2022-09-27T01:53:11.556Z,13.165
2022-09-27T01:54:10.208Z,13.155
2022-09-27T01:55:11.525Z,13.149
2022-09-27T01:56:11.139Z,13.155
2022-09-27T01:57:10.904Z,13.155
2022-09-27T01:58:11.904Z,13.1258
2022-09-27T01:59:10.533Z,13.143
2022-09-27T02:00:10.318Z,13.105
2022-09-27T02:01:11.889Z,13.08
2022-09-27T02:02:11.200Z,13.095
2022-09-27T02:03:10.617Z,13.075
2022-09-27T02:04:10.188Z,13.06
2022-09-27T02:05:11.247Z,13.055
2022-09-27T02:06:12.877Z,13.03
2022-09-27T02:07:10.991Z,13.045
2022-09-27T02:08:10.401Z,13.03
2022-09-27T02:09:09.960Z,13.01
2022-09-27T02:10:10.760Z,13.015
2022-09-27T02:11:10.746Z,13.025
2022-09-27T02:12:11.188Z,13.045
2022-09-27T02:13:11.003Z,13.04
2022-09-27T02:14:09.557Z,13.05
2022-09-27T02:15:11.260Z,13.055
2022-09-27T02:16:10.578Z,13.065
2022-09-27T02:17:10.363Z,13.055
2022-09-27T02:18:10.490Z,13.085
2022-09-27T02:19:09.625Z,13.105
2022-09-27T02:20:09.806Z,13.115
2022-09-27T02:21:10.910Z,13.085
2022-09-27T02:22:10.579Z,13.115
2022-09-27T02:23:11.268Z,13.1258
2022-09-27T02:24:09.734Z,13.137
2022-09-27T02:25:10.636Z,13.1258
2022-09-27T02:26:10.907Z,13.115
2022-09-27T02:27:11.061Z,13.16
2022-09-27T02:28:10.209Z,13.149
2022-09-27T02:29:09.924Z,13.115
2022-09-27T02:30:10.445Z,13.1208
2022-09-27T02:31:11.815Z,13.132
2022-09-27T02:32:11.261Z,13.143
2022-09-27T02:33:10.230Z,13.166
2022-09-27T02:34:10.170Z,13.143
2022-09-27T02:35:10.719Z,13.143
2022-09-27T02:36:10.416Z,13.17
2022-09-27T02:37:11.046Z,13.131
2022-09-27T02:38:10.342Z,13.116
2022-09-27T02:39:09.390Z,13.045
2022-09-27T02:40:10.546Z,13.0692
2022-09-27T02:41:10.840Z,13.07
2022-09-27T02:42:11.406Z,13.05
2022-09-27T02:43:10.830Z,13.0381
2022-09-27T02:44:09.413Z,13.035
2022-09-27T02:45:11.318Z,12.9815
2022-09-27T02:46:10.941Z,13.02
2022-09-27T02:47:10.841Z,12.95
2022-09-27T02:48:10.825Z,12.93
2022-09-27T02:49:10.578Z,12.98
2022-09-27T02:50:10.299Z,12.935
2022-09-27T02:51:12.053Z,12.9446
2022-09-27T02:52:10.671Z,12.994
2022-09-27T02:53:10.788Z,12.985
2022-09-27T02:54:10.274Z,13.02
2022-09-27T02:55:10.813Z,13
2022-09-27T02:56:11.139Z,12.985
2022-09-27T02:57:11.468Z,12.985
2022-09-27T02:58:10.723Z,12.995
2022-09-27T02:59:10.933Z,12.995
2022-09-27T03:00:11.316Z,12.96
2022-09-27T03:01:10.708Z,12.945
2022-09-27T03:02:13.839Z,12.985
2022-09-27T03:03:11.159Z,12.945
2022-09-27T03:04:09.564Z,12.915
2022-09-27T03:05:11.289Z,12.91
2022-09-27T03:06:10.361Z,12.91
2022-09-27T03:07:10.383Z,12.935
2022-09-27T03:08:10.778Z,12.93
2022-09-27T03:09:10.221Z,12.915
2022-09-27T03:10:11.113Z,12.895
2022-09-27T03:11:11.373Z,12.817
2022-09-27T03:12:10.783Z,12.8791
2022-09-27T03:13:11.129Z,12.88
2022-09-27T03:14:10.330Z,12.9
2022-09-27T03:15:10.523Z,12.8741
2022-09-27T03:16:10.145Z,12.862
2022-09-27T03:17:11.538Z,12.92
2022-09-27T03:18:10.840Z,12.915
2022-09-27T03:19:09.282Z,12.9
2022-09-27T03:20:11.398Z,12.883
2022-09-27T03:21:10.629Z,12.839
2022-09-27T03:22:10.438Z,12.856
2022-09-27T03:23:11.411Z,12.8683
2022-09-27T03:24:10.072Z,12.827
2022-09-27T03:25:11.482Z,12.8
2022-09-27T03:26:12.983Z,12.8108
2022-09-27T03:27:10.445Z,12.8216
2022-09-27T03:28:11.226Z,12.805
2022-09-27T03:29:10.492Z,12.775
2022-09-27T03:30:10.624Z,12.77
2022-09-27T03:31:11.497Z,12.77
2022-09-27T03:32:10.580Z,12.715
2022-09-27T03:33:10.649Z,12.677
2022-09-27T03:34:10.734Z,12.649
2022-09-27T03:35:12.149Z,12.649
2022-09-27T03:36:10.949Z,12.6783
2022-09-27T03:37:11.245Z,12.649
2022-09-27T03:38:11.186Z,12.643
2022-09-27T03:39:10.574Z,12.605
2022-09-27T03:40:11.298Z,12.595
2022-09-27T03:41:11.127Z,12.595
2022-09-27T03:42:10.732Z,12.57
2022-09-27T03:43:11.646Z,12.6
2022-09-27T03:44:09.781Z,12.615
2022-09-27T03:45:11.133Z,12.632
2022-09-27T03:46:10.442Z,12.626
2022-09-27T03:47:11.852Z,12.637
2022-09-27T03:48:10.646Z,12.643
2022-09-27T03:49:10.766Z,12.6258
2022-09-27T03:50:11.720Z,12.6316
2022-09-27T03:51:10.744Z,12.649
2022-09-27T03:52:11.696Z,12.6
2022-09-27T03:53:11.106Z,12.56
2022-09-27T03:54:09.860Z,12.54
2022-09-27T03:55:11.782Z,12.56
2022-09-27T03:56:10.562Z,12.55
2022-09-27T03:57:11.189Z,12.575
2022-09-27T03:58:11.366Z,12.59
2022-09-27T03:59:10.173Z,12.6208
2022-09-27T04:00:11.626Z,12.605
2022-09-27T04:01:11.054Z,12.644
2022-09-27T04:02:11.433Z,12.6208
2022-09-27T04:03:11.346Z,12.61
2022-09-27T04:04:11.344Z,12.5709
2022-09-27T04:05:11.257Z,12.616
2022-09-27T04:06:10.423Z,12.615
2022-09-27T04:07:11.400Z,12.6061
2022-09-27T04:08:10.667Z,12.5981
2022-09-27T04:09:09.934Z,12.57
2022-09-27T04:10:11.749Z,12.5507
2022-09-27T04:11:11.082Z,12.5545
2022-09-27T04:12:10.882Z,12.575
2022-09-27T04:13:11.582Z,12.5507
2022-09-27T04:14:10.027Z,12.5709
2022-09-27T04:15:10.483Z,12.6
2022-09-27T04:16:11.787Z,12.605
2022-09-27T04:17:11.559Z,12.61
2022-09-27T04:18:10.695Z,12.627
2022-09-27T04:19:10.603Z,12.605
2022-09-27T04:20:11.479Z,12.621
2022-09-27T04:21:10.843Z,12.61
2022-09-27T04:22:11.471Z,12.61
2022-09-27T04:23:11.556Z,12.565
2022-09-27T04:24:09.951Z,12.565
2022-09-27T04:25:11.341Z,12.565
2022-09-27T04:26:11.022Z,12.575
2022-09-27T04:27:10.988Z,12.57
2022-09-27T04:28:11.517Z,12.56
2022-09-27T04:29:10.021Z,12.535
2022-09-27T04:30:10.302Z,12.515
2022-09-27T04:31:11.334Z,12.525
2022-09-27T04:32:10.914Z,12.5
2022-09-27T04:33:10.526Z,12.505
2022-09-27T04:34:10.661Z,12.485
2022-09-27T04:35:11.396Z,12.45
2022-09-27T04:36:11.317Z,12.42
2022-09-27T04:37:10.886Z,12.41
2022-09-27T04:38:11.550Z,12.445
2022-09-27T04:39:10.960Z,12.43
2022-09-27T04:40:10.588Z,12.455
2022-09-27T04:41:10.537Z,12.45
2022-09-27T04:42:11.577Z,12.465
2022-09-27T04:43:11.518Z,12.45
2022-09-27T04:44:09.924Z,12.3791
2022-09-27T04:45:11.846Z,12.39
2022-09-27T04:46:11.309Z,12.405
2022-09-27T04:47:11.154Z,12.39
2022-09-27T04:48:11.737Z,12.45
2022-09-27T04:49:09.945Z,12.415
2022-09-27T04:50:11.009Z,12.45
2022-09-27T04:51:11.761Z,12.425
2022-09-27T04:52:10.482Z,12.39
2022-09-27T04:53:10.640Z,12.3791
2022-09-27T04:54:10.100Z,12.339
2022-09-27T04:55:10.579Z,12.345
2022-09-27T04:56:10.916Z,12.361
2022-09-27T04:57:11.076Z,12.362
2022-09-27T04:58:10.080Z,12.327
2022-09-27T04:59:10.937Z,12.362
2022-09-27T05:00:10.442Z,12.356
2022-09-27T05:01:10.905Z,12.345
2022-09-27T05:02:10.718Z,12.345
2022-09-27T05:03:10.346Z,12.3
2022-09-27T05:04:09.643Z,12.356
2022-09-27T05:05:11.461Z,12.3683
2022-09-27T05:06:10.789Z,12.389
2022-09-27T05:07:10.171Z,12.395
2022-09-27T05:08:11.072Z,12.4
2022-09-27T05:09:10.102Z,12.41
2022-09-27T05:10:10.507Z,12.385
2022-09-27T05:11:11.274Z,12.395
2022-09-27T05:12:10.221Z,12.395
2022-09-27T05:13:10.339Z,12.367
2022-09-27T05:14:10.199Z,12.362
2022-09-27T05:15:10.365Z,12.3791
2022-09-27T05:16:11.390Z,12.362
2022-09-27T05:17:10.860Z,12.362
2022-09-27T05:18:09.909Z,12.356
2022-09-27T05:19:10.470Z,12.339
2022-09-27T05:20:10.185Z,12.333
2022-09-27T05:21:11.097Z,12.327
2022-09-27T05:22:10.127Z,12.335
2022-09-27T05:23:11.519Z,12.342
2022-09-27T05:24:10.928Z,12.356
2022-09-27T05:25:10.517Z,12.335
2022-09-27T05:26:11.064Z,12.3207
2022-09-27T05:27:10.477Z,12.372
2022-09-27T05:28:11.260Z,12.403
2022-09-27T05:29:10.376Z,12.373
2022-09-27T05:30:10.048Z,12.329
2022-09-27T05:31:11.849Z,12.3153
2022-09-27T05:32:11.366Z,12.3045
2022-09-27T05:33:09.729Z,12.327
2022-09-27T05:34:10.256Z,12.322
2022-09-27T05:35:10.836Z,12.3216
2022-09-27T05:36:10.833Z,12.305
2022-09-27T05:37:11.373Z,12.295
2022-09-27T05:38:10.689Z,12.333
2022-09-27T05:39:09.775Z,12.3216
2022-09-27T05:40:29.284Z,12.3216
2022-09-27T05:41:10.986Z,12.3108
2022-09-27T05:42:10.403Z,12.339
2022-09-27T05:43:10.869Z,12.345
2022-09-27T05:44:10.036Z,12.355
2022-09-27T05:45:10.522Z,12.39
2022-09-27T05:46:10.797Z,12.41
2022-09-27T05:47:10.987Z,12.389
2022-09-27T05:48:10.584Z,12.3791
2022-09-27T05:49:10.097Z,12.356
2022-09-27T05:50:10.446Z,12.385
2022-09-27T05:51:11.440Z,12.44
2022-09-27T05:52:15.016Z,12.455
2022-09-27T05:53:10.740Z,12.465
2022-09-27T05:54:10.127Z,12.48
2022-09-27T05:55:11.067Z,12.5
2022-09-27T05:56:10.715Z,12.48
2022-09-27T05:57:11.352Z,12.485
2022-09-27T05:58:10.875Z,12.5
2022-09-27T05:59:11.617Z,12.48
2022-09-27T06:00:10.983Z,12.5
2022-09-27T06:01:11.164Z,12.535
2022-09-27T06:02:11.578Z,12.525
2022-09-27T06:03:10.799Z,12.55
2022-09-27T06:04:10.581Z,12.54
2022-09-27T06:05:11.473Z,12.55
2022-09-27T06:06:10.936Z,12.58
2022-09-27T06:07:10.545Z,12.58
2022-09-27T06:08:11.012Z,12.638
2022-09-27T06:09:10.923Z,12.699
2022-09-27T06:10:10.551Z,12.725
2022-09-27T06:11:10.805Z,12.73
2022-09-27T06:12:11.189Z,12.75
2022-09-27T06:13:11.244Z,12.71
2022-09-27T06:14:09.768Z,12.75
2022-09-27T06:15:11.367Z,12.77
2022-09-27T06:16:10.779Z,12.775
2022-09-27T06:17:10.912Z,12.78
2022-09-27T06:18:10.812Z,12.811
2022-09-27T06:19:11.188Z,12.833
2022-09-27T06:20:10.393Z,12.856
2022-09-27T06:21:11.176Z,12.9
2022-09-27T06:22:11.174Z,12.925
2022-09-27T06:23:11.660Z,12.905
2022-09-27T06:24:10.973Z,12.945
2022-09-27T06:25:10.781Z,12.985
2022-09-27T06:26:10.618Z,12.975
2022-09-27T06:27:11.190Z,13.02
2022-09-27T06:28:10.680Z,13.05
2022-09-27T06:29:11.015Z,13.11
2022-09-27T06:30:11.264Z,13.137
2022-09-27T06:31:11.996Z,13.21
2022-09-27T06:32:11.049Z,13.245
2022-09-27T06:33:11.178Z,13.27
2022-09-27T06:34:10.636Z,13.285
2022-09-27T06:35:11.319Z,13.316
2022-09-27T06:36:10.818Z,13.345
2022-09-27T06:37:11.572Z,13.38
2022-09-27T06:38:11.428Z,13.395
2022-09-27T06:39:10.968Z,13.41
2022-09-27T06:40:11.677Z,13.44
2022-09-27T06:41:11.226Z,13.465
2022-09-27T06:42:10.926Z,13.455
2022-09-27T06:43:11.641Z,13.47
2022-09-27T06:44:09.582Z,13.4781
2022-09-27T06:45:11.515Z,13.4861
2022-09-27T06:46:10.912Z,13.495
2022-09-27T06:47:11.251Z,13.505
2022-09-27T06:48:10.824Z,13.5272
2022-09-27T06:49:10.424Z,13.51
2022-09-27T06:50:11.104Z,13.5184
2022-09-27T06:51:10.638Z,13.5163
2022-09-27T06:52:10.652Z,13.525
2022-09-27T06:53:11.373Z,13.52
2022-09-27T06:54:10.078Z,13.56
2022-09-27T06:55:11.359Z,13.595
2022-09-27T06:56:10.245Z,13.605
2022-09-27T06:57:10.387Z,13.626
2022-09-27T06:58:10.610Z,13.649
2022-09-27T06:59:10.034Z,13.66
2022-09-27T07:00:10.328Z,13.695
2022-09-27T07:01:11.674Z,13.715
2022-09-27T07:02:10.611Z,13.725
2022-09-27T07:03:11.503Z,13.71
2022-09-27T07:04:10.032Z,13.745
2022-09-27T07:05:10.542Z,13.735
2022-09-27T07:06:11.152Z,13.775
2022-09-27T07:07:10.604Z,13.77
2022-09-27T07:08:11.099Z,13.785
2022-09-27T07:09:10.177Z,13.811
2022-09-27T07:10:10.517Z,13.8216
2022-09-27T07:11:11.319Z,13.81
2022-09-27T07:12:10.081Z,13.8158
2022-09-27T07:13:10.133Z,13.839
2022-09-27T07:14:11.128Z,13.839
2022-09-27T07:15:10.783Z,13.845
2022-09-27T07:16:10.925Z,13.833
2022-09-27T07:17:11.499Z,13.856
2022-09-27T07:18:10.911Z,13.8741
2022-09-27T07:19:10.822Z,13.935
2022-09-27T07:20:11.026Z,14
2022-09-27T07:21:10.947Z,14.035
2022-09-27T07:22:11.588Z,14.05
2022-09-27T07:23:11.212Z,14.075
2022-09-27T07:24:11.061Z,14.115
2022-09-27T07:25:11.673Z,14.115
2022-09-27T07:26:11.241Z,14.143
2022-09-27T07:27:10.336Z,14.171
2022-09-27T07:28:10.919Z,14.172
2022-09-27T07:29:10.181Z,14.1783
2022-09-27T07:30:10.992Z,14.143
2022-09-27T07:31:11.904Z,14.149
2022-09-27T07:32:11.060Z,14.143
2022-09-27T07:33:11.830Z,14.177
2022-09-27T07:34:10.274Z,14.1783
2022-09-27T07:35:11.082Z,14.235
2022-09-27T07:36:11.664Z,14.245
2022-09-27T07:37:11.278Z,14.255
2022-09-27T07:38:10.914Z,14.285
2022-09-27T07:39:11.399Z,14.29
2022-09-27T07:40:11.376Z,14.305
2022-09-27T07:41:10.865Z,14.3216
2022-09-27T07:42:10.910Z,14.362
2022-09-27T07:43:11.045Z,14.415
2022-09-27T07:44:10.377Z,14.43
2022-09-27T07:45:10.675Z,14.45
2022-09-27T07:46:10.582Z,14.455
2022-09-27T07:47:10.545Z,14.46
2022-09-27T07:48:10.637Z,14.45
2022-09-27T07:49:10.149Z,14.49
2022-09-27T07:50:10.933Z,14.5
2022-09-27T07:51:11.099Z,14.495
2022-09-27T07:52:10.497Z,14.505
2022-09-27T07:53:10.756Z,14.52
2022-09-27T07:54:10.705Z,14.555
2022-09-27T07:55:10.591Z,14.585
2022-09-27T07:56:10.602Z,14.605
2022-09-27T07:57:10.984Z,14.59
2022-09-27T07:58:10.510Z,14.6208
2022-09-27T07:59:09.644Z,14.655
2022-09-27T08:00:11.400Z,14.69
2022-09-27T08:01:11.262Z,14.735
2022-09-27T08:02:10.044Z,14.78
2022-09-27T08:03:11.465Z,14.79
2022-09-27T08:04:09.722Z,14.785
2022-09-27T08:05:11.290Z,14.844
2022-09-27T08:06:10.854Z,14.89
2022-09-27T08:07:14.221Z,14.905
2022-09-27T08:08:11.567Z,14.945
2022-09-27T08:09:10.296Z,14.965
2022-09-27T08:10:10.239Z,14.9945
2022-09-27T08:11:11.684Z,15.027
2022-09-27T08:12:10.910Z,15.049
2022-09-27T08:13:10.646Z,15.0381
2022-09-27T08:14:11.300Z,15.018
2022-09-27T08:15:10.389Z,15.0272
2022-09-27T08:16:11.122Z,15.005
2022-09-27T08:17:11.165Z,15.01
2022-09-27T08:18:11.155Z,15.01
2022-09-27T08:19:09.837Z,15.01
2022-09-27T08:20:11.317Z,15.03
2022-09-27T08:21:11.123Z,15.05
2022-09-27T08:22:10.448Z,15.065
2022-09-27T08:23:11.013Z,15.115
2022-09-27T08:24:10.291Z,15.137
2022-09-27T08:25:10.393Z,15.143
2022-09-27T08:26:11.260Z,15.16
2022-09-27T08:27:11.974Z,15.1841
2022-09-27T08:28:10.466Z,15.204
2022-09-27T08:29:10.263Z,15.22
2022-09-27T08:30:10.356Z,15.265
2022-09-27T08:31:11.377Z,15.29
2022-09-27T08:32:10.589Z,15.3
2022-09-27T08:33:10.419Z,15.328
2022-09-27T08:34:09.981Z,15.384
2022-09-27T08:35:10.885Z,15.39
2022-09-27T08:36:10.757Z,15.405
2022-09-27T08:37:10.980Z,15.41
2022-09-27T08:38:11.096Z,15.445
2022-09-27T08:39:10.819Z,15.495
2022-09-27T08:40:10.843Z,15.515
2022-09-27T08:41:11.074Z,15.525
2022-09-27T08:42:10.838Z,15.595
2022-09-27T08:43:11.617Z,15.59
2022-09-27T08:44:10.898Z,15.58
2022-09-27T08:45:11.926Z,15.595
2022-09-27T08:46:10.929Z,15.615
2022-09-27T08:47:10.229Z,15.671
2022-09-27T08:48:11.441Z,15.6841
2022-09-27T08:49:10.881Z,15.6783
2022-09-27T08:50:10.128Z,15.683
2022-09-27T08:51:11.374Z,15.705
2022-09-27T08:52:10.705Z,15.745
2022-09-27T08:53:11.357Z,15.745
2022-09-27T08:54:10.643Z,15.775
2022-09-27T08:55:10.826Z,15.795
2022-09-27T08:56:11.102Z,15.834
2022-09-27T08:57:11.326Z,15.873
2022-09-27T08:58:11.076Z,15.89
2022-09-27T08:59:10.621Z,15.915
2022-09-27T09:00:11.163Z,15.955
2022-09-27T09:01:10.838Z,16.01
2022-09-27T09:02:11.646Z,16.085
2022-09-27T09:03:11.464Z,16.149
2022-09-27T09:04:10.072Z,16.225
2022-09-27T09:05:11.396Z,16.265
2022-09-27T09:06:10.569Z,16.329
2022-09-27T09:07:10.978Z,16.394
2022-09-27T09:08:11.006Z,16.455
2022-09-27T09:09:10.558Z,16.535
2022-09-27T09:10:11.379Z,16.605
2022-09-27T09:11:11.051Z,16.649
2022-09-27T09:12:10.094Z,16.69
2022-09-27T09:13:11.180Z,16.694
2022-09-27T09:14:13.562Z,16.74
2022-09-27T09:15:10.955Z,16.715
2022-09-27T09:16:10.735Z,16.672
2022-09-27T09:17:10.748Z,16.6841
2022-09-27T09:18:11.212Z,16.649
2022-09-27T09:19:11.272Z,16.643
2022-09-27T09:20:16.179Z,16.65
2022-09-27T09:21:11.126Z,16.6258
2022-09-27T09:22:10.708Z,16.6
2022-09-27T09:23:10.837Z,16.595
2022-09-27T09:24:11.179Z,16.58
2022-09-27T09:25:10.781Z,16.6
2022-09-27T09:26:10.296Z,16.59
2022-09-27T09:27:11.574Z,16.585
2022-09-27T09:28:10.509Z,16.5927
2022-09-27T09:29:11.175Z,16.6061
2022-09-27T09:30:10.325Z,16.5927
2022-09-27T09:31:11.945Z,16.6107
2022-09-27T09:32:10.980Z,16.58
2022-09-27T09:33:10.693Z,16.5709
2022-09-27T09:34:10.879Z,16.6061
2022-09-27T09:35:10.884Z,16.639
2022-09-27T09:36:10.595Z,16.643
2022-09-27T09:37:11.324Z,16.631
2022-09-27T09:38:11.293Z,16.6263
2022-09-27T09:39:10.192Z,16.643
2022-09-27T09:40:10.914Z,16.6061
2022-09-27T09:41:11.008Z,16.6209
2022-09-27T09:42:10.473Z,16.643
2022-09-27T09:43:11.435Z,16.66
2022-09-27T09:44:10.558Z,16.705
2022-09-27T09:45:10.703Z,16.74
2022-09-27T09:46:11.236Z,16.75
2022-09-27T09:47:11.218Z,16.765
2022-09-27T09:48:10.636Z,16.755
2022-09-27T09:49:10.971Z,16.785
2022-09-27T09:50:10.673Z,16.833
2022-09-27T09:51:11.374Z,16.85
2022-09-27T09:52:10.643Z,16.822
2022-09-27T09:53:10.747Z,16.845
2022-09-27T09:54:10.499Z,16.8791
2022-09-27T09:55:10.213Z,16.894
2022-09-27T09:56:10.944Z,16.862
2022-09-27T09:57:11.465Z,16.856
2022-09-27T09:58:10.377Z,16.895
2022-09-27T09:59:10.705Z,16.89
2022-09-27T10:00:10.410Z,16.91
2022-09-27T10:01:10.968Z,16.97
2022-09-27T10:02:11.222Z,16.975
2022-09-27T10:03:11.000Z,17.02
2022-09-27T10:04:10.493Z,17.06
2022-09-27T10:05:11.370Z,17.075
2022-09-27T10:06:10.784Z,17.005
2022-09-27T10:07:11.788Z,16.985
2022-09-27T10:08:11.105Z,17.01
2022-09-27T10:09:10.537Z,17.015
2022-09-27T10:10:10.291Z,16.985
2022-09-27T10:11:11.466Z,17.03
2022-09-27T10:12:10.727Z,17.06
2022-09-27T10:13:11.752Z,17.06
2022-09-27T10:14:11.125Z,17.105
2022-09-27T10:15:11.255Z,17.12
2022-09-27T10:16:11.531Z,17.166
2022-09-27T10:17:11.186Z,17.2
2022-09-27T10:18:10.675Z,17.28
2022-09-27T10:19:11.963Z,17.322
2022-09-27T10:20:11.430Z,17.356
2022-09-27T10:21:10.763Z,17.42
2022-09-27T10:22:11.534Z,17.475
2022-09-27T10:23:10.981Z,17.535
2022-09-27T10:24:13.504Z,17.621
2022-09-27T10:25:11.510Z,17.693
2022-09-27T10:26:11.211Z,17.735
2022-09-27T10:27:10.746Z,17.785
2022-09-27T10:28:11.433Z,17.861
2022-09-27T10:29:10.992Z,17.915
2022-09-27T10:30:10.079Z,17.915
2022-09-27T10:31:11.115Z,17.861
2022-09-27T10:32:10.734Z,17.765
2022-09-27T10:33:10.738Z,17.73
2022-09-27T10:34:11.301Z,17.677
2022-09-27T10:35:10.970Z,17.649
2022-09-27T10:36:10.215Z,17.621
2022-09-27T10:37:11.077Z,17.6
2022-09-27T10:38:11.084Z,17.56
2022-09-27T10:39:10.900Z,17.465
2022-09-27T10:40:10.463Z,17.43
2022-09-27T10:41:10.647Z,17.3683
2022-09-27T10:42:11.138Z,17.333
2022-09-27T10:43:10.765Z,17.27
2022-09-27T10:44:09.606Z,17.215
2022-09-27T10:45:10.727Z,17.139
2022-09-27T10:46:10.097Z,17.08
2022-09-27T10:47:11.241Z,17.06
2022-09-27T10:48:10.139Z,17.025
2022-09-27T10:49:09.849Z,16.985
2022-09-27T10:50:13.454Z,16.935
2022-09-27T10:51:11.219Z,16.925
2022-09-27T10:52:10.686Z,16.9127
2022-09-27T10:53:11.392Z,16.906
2022-09-27T10:54:10.865Z,16.915
2022-09-27T10:55:10.664Z,16.9236
2022-09-27T10:56:10.914Z,16.902
2022-09-27T10:57:10.701Z,16.866
2022-09-27T10:58:11.570Z,16.836
2022-09-27T10:59:11.287Z,16.7827
2022-09-27T11:00:14.173Z,16.795
2022-09-27T11:01:11.492Z,16.806
2022-09-27T11:02:11.311Z,16.805
2022-09-27T11:03:10.777Z,16.833
2022-09-27T11:04:11.657Z,16.88
2022-09-27T11:05:14.739Z,16.8854
2022-09-27T11:06:10.370Z,16.8741
2022-09-27T11:07:11.336Z,16.862
2022-09-27T11:08:11.260Z,16.873
2022-09-27T11:09:10.327Z,16.861
2022-09-27T11:10:11.943Z,16.76
2022-09-27T11:11:11.054Z,16.71
2022-09-27T11:12:10.915Z,16.66
2022-09-27T11:13:11.257Z,16.595
2022-09-27T11:14:10.083Z,16.585
2022-09-27T11:15:10.882Z,16.565
2022-09-27T11:16:11.593Z,16.58
2022-09-27T11:17:10.695Z,16.6
2022-09-27T11:18:10.532Z,16.611
2022-09-27T11:19:15.147Z,16.61
2022-09-27T11:20:10.240Z,16.6258
2022-09-27T11:21:11.588Z,16.616
2022-09-27T11:22:10.886Z,16.61
2022-09-27T11:23:10.825Z,16.615
2022-09-27T11:24:11.346Z,16.637
2022-09-27T11:25:11.155Z,16.666
2022-09-27T11:26:10.242Z,16.643
2022-09-27T11:27:11.160Z,16.672
2022-09-27T11:28:11.030Z,16.71
2022-09-27T11:29:09.823Z,16.705
2022-09-27T11:30:11.383Z,16.735
2022-09-27T11:31:10.947Z,16.775
2022-09-27T11:32:10.098Z,16.805
2022-09-27T11:33:11.673Z,16.81
2022-09-27T11:34:10.402Z,16.78
2022-09-27T11:35:10.651Z,16.76
2022-09-27T11:36:11.217Z,16.8108
2022-09-27T11:37:10.549Z,16.795
2022-09-27T11:38:10.676Z,16.8216
2022-09-27T11:39:11.197Z,16.84
2022-09-27T11:40:10.952Z,16.834
2022-09-27T11:41:11.959Z,16.861
2022-09-27T11:42:11.220Z,16.885
2022-09-27T11:43:10.982Z,16.889
2022-09-27T11:44:11.583Z,16.845
2022-09-27T11:45:34.253Z,16.85
2022-09-27T11:46:27.434Z,16.8683
2022-09-27T11:47:11.680Z,16.91
2022-09-27T11:48:11.242Z,16.93
2022-09-27T11:49:11.233Z,16.91
2022-09-27T11:50:10.992Z,16.8791
2022-09-27T11:51:10.772Z,16.839
2022-09-27T11:52:10.530Z,16.845
2022-09-27T11:53:11.523Z,16.839
2022-09-27T11:54:09.975Z,16.8108
2022-09-27T11:55:10.447Z,16.795
2022-09-27T11:56:10.829Z,16.839
2022-09-27T11:57:10.480Z,16.895
2022-09-27T11:58:09.935Z,16.89
2022-09-27T11:59:10.235Z,16.92
2022-09-27T12:00:10.499Z,16.94
2022-09-27T12:01:10.956Z,16.99
2022-09-27T12:02:11.082Z,17.035
2022-09-27T12:03:11.102Z,17.025
2022-09-27T12:04:09.510Z,17.02
2022-09-27T12:05:11.030Z,16.965
2022-09-27T12:06:10.649Z,16.995
2022-09-27T12:07:10.364Z,17.04
2022-09-27T12:08:10.938Z,17.065
2022-09-27T12:09:10.259Z,17.05
2022-09-27T12:10:11.406Z,17.045
2022-09-27T12:11:11.699Z,17.085
2022-09-27T12:12:10.813Z,17.1
2022-09-27T12:13:11.839Z,17.143
2022-09-27T12:14:09.767Z,17.1
2022-09-27T12:15:10.762Z,17.0818
2022-09-27T12:16:11.728Z,17.023
2022-09-27T12:17:11.554Z,16.99
2022-09-27T12:18:11.007Z,17
2022-09-27T12:19:11.005Z,17.0184
2022-09-27T12:20:11.330Z,17.03
2022-09-27T12:21:10.770Z,17.0272
2022-09-27T12:22:11.347Z,17.0461
2022-09-27T12:23:11.117Z,17.0654
2022-09-27T12:24:10.825Z,17.1
2022-09-27T12:25:11.408Z,17.095
2022-09-27T12:26:11.379Z,17.115
2022-09-27T12:27:10.885Z,17.143
2022-09-27T12:28:11.310Z,17.149
2022-09-27T12:29:11.239Z,17.143
2022-09-27T12:30:10.434Z,17.172
2022-09-27T12:42:46.837Z,17.205
2022-09-27T12:42:53.729Z,17.205
2022-09-27T12:43:00.569Z,17.2
2022-09-27T12:43:10.154Z,17.24